Time;durP1;ratioP1;P1;durP2;ratioP2;P2;SDS_P1;SDS_P2;PMS_P1;PMS_P2;Temp;Humidity;BMP_temperature;BMP_pressure;BME280_temperature;BME280_humidity;BME280_pressure;Samples;Min_cycle;Max_cycle;Signal;HPM_P1;HPM_P2
2021/10/27 00:01:59;;;;;;;11.45;2.70;;;15.30;99.90;;;;;;5011499;28;20052;-80
2021/10/27 00:04:28;;;;;;;11.38;3.55;;;15.40;99.90;;;;;;5028578;28;20060;-80
2021/10/27 00:06:56;;;;;;;15.48;3.13;;;15.40;99.90;;;;;;5011258;28;20060;-81
2021/10/27 00:09:25;;;;;;;8.50;2.67;;;15.40;99.90;;;;;;5025228;28;20061;-80
2021/10/27 00:11:54;;;;;;;12.60;2.78;;;15.50;99.90;;;;;;5027045;28;20046;-80
2021/10/27 00:14:23;;;;;;;12.50;3.88;;;15.50;99.90;;;;;;5026972;28;20050;-80
2021/10/27 00:16:51;;;;;;;10.82;2.72;;;15.50;99.90;;;;;;5025683;28;20038;-80
2021/10/27 00:19:20;;;;;;;14.57;3.20;;;15.50;99.90;;;;;;5008795;28;20068;-80
2021/10/27 00:21:49;;;;;;;13.55;2.65;;;14.60;99.90;;;;;;5033974;28;20045;-80
2021/10/27 00:24:18;;;;;;;20.75;4.05;;;15.50;99.90;;;;;;5027717;28;20048;-81
2021/10/27 00:26:46;;;;;;;14.80;3.30;;;15.60;99.90;;;;;;5037250;28;20040;-80
2021/10/27 00:29:17;;;;;;;12.73;2.97;;;15.50;99.90;;;;;;5031022;28;20049;-84
2021/10/27 00:31:46;;;;;;;12.05;2.58;;;15.60;99.90;;;;;;5029841;28;20037;-80
2021/10/27 00:34:14;;;;;;;20.45;3.60;;;15.60;99.90;;;;;;5045646;28;20048;-81
2021/10/27 00:36:43;;;;;;;8.02;2.65;;;15.30;99.90;;;;;;5047352;28;20064;-82
2021/10/27 00:39:11;;;;;;;14.38;3.40;;;15.60;99.90;;;;;;5048002;28;20046;-83
2021/10/27 00:41:44;;;;;;;17.48;3.25;;;15.60;99.90;;;;;;5013853;28;20053;-82
2021/10/27 00:44:19;;;;;;;18.00;3.28;;;15.60;99.90;;;;;;5036445;28;20060;-82
2021/10/27 00:47:05;;;;;;;10.82;2.92;;;15.60;99.90;;;;;;5050047;28;20045;-80
2021/10/27 00:49:37;;;;;;;17.55;3.20;;;15.60;99.90;;;;;;5024792;28;20056;-81
2021/10/27 00:52:10;;;;;;;15.05;2.83;;;15.60;99.90;;;;;;5020574;28;20041;-79
2021/10/27 00:54:43;;;;;;;9.73;2.78;;;15.50;99.90;;;;;;5030462;28;20044;-82
2021/10/27 00:57:14;;;;;;;9.63;2.28;;;15.60;99.90;;;;;;5047160;28;20046;-79
2021/10/27 00:59:45;;;;;;;12.00;3.03;;;15.50;99.90;;;;;;5045005;28;20060;-83
2021/10/27 01:02:15;;;;;;;15.05;3.65;;;15.60;99.90;;;;;;5012986;28;20053;-81
2021/10/27 01:04:47;;;;;;;12.43;2.47;;;15.60;99.90;;;;;;5043275;28;20046;-80
2021/10/27 01:07:16;;;;;;;10.00;3.05;;;15.60;99.90;;;;;;5012366;28;20041;-81
2021/10/27 01:09:44;;;;;;;12.30;2.63;;;15.60;99.90;;;;;;5046424;28;20049;-81
2021/10/27 01:12:12;;;;;;;14.70;2.80;;;15.50;99.90;;;;;;5046699;28;20060;-79
2021/10/27 01:14:46;;;;;;;11.57;2.30;;;15.60;99.90;;;;;;5014666;28;20059;-80
2021/10/27 01:17:18;;;;;;;7.80;3.58;;;15.70;99.90;;;;;;5017363;28;20036;-80
2021/10/27 01:19:54;;;;;;;10.65;2.65;;;15.60;99.90;;;;;;5062432;28;20040;-80
2021/10/27 01:22:40;;;;;;;17.08;4.18;;;15.70;99.90;;;;;;5017283;28;20041;-80
2021/10/27 01:25:15;;;;;;;9.48;2.60;;;15.70;99.90;;;;;;5043116;28;20251;-80
2021/10/27 01:27:46;;;;;;;12.55;2.40;;;17.00;99.90;;;;;;5038091;28;20058;-80
2021/10/27 01:30:18;;;;;;;15.77;2.33;;;15.60;99.90;;;;;;5024601;28;20042;-83
2021/10/27 01:32:49;;;;;;;17.45;4.88;;;15.60;99.90;;;;;;5022032;28;20042;-81
2021/10/27 01:35:18;;;;;;;5.45;2.17;;;15.60;99.90;;;;;;5024005;28;20060;-82
2021/10/27 01:37:49;;;;;;;11.20;3.65;;;15.60;99.90;;;;;;5024681;28;20054;-80
2021/10/27 01:40:19;;;;;;;20.15;2.95;;;15.60;99.90;;;;;;5025705;28;20046;-80
2021/10/27 01:42:52;;;;;;;12.82;2.72;;;15.60;99.90;;;;;;5007560;28;20056;-80
2021/10/27 01:45:20;;;;;;;7.68;2.97;;;15.70;99.90;;;;;;5020631;28;20057;-79
2021/10/27 01:47:48;;;;;;;9.38;2.47;;;15.60;99.90;;;;;;5019842;28;20057;-79
2021/10/27 01:50:16;;;;;;;19.85;3.65;;;15.60;99.90;;;;;;5040961;28;20042;-84
2021/10/27 01:52:44;;;;;;;12.07;2.50;;;15.60;99.90;;;;;;5008827;28;20054;-83
2021/10/27 01:55:12;;;;;;;10.57;2.83;;;15.50;99.90;;;;;;5008908;28;20056;-80
2021/10/27 01:57:41;;;;;;;9.07;2.03;;;15.50;99.90;;;;;;5008583;28;20391;-84
2021/10/27 02:00:09;;;;;;;8.80;2.08;;;15.60;99.90;;;;;;5009532;28;20053;-85
2021/10/27 02:02:41;;;;;;;16.42;3.85;;;15.60;99.90;;;;;;5026758;28;20045;-84
2021/10/27 02:05:14;;;;;;;7.88;1.85;;;15.60;99.90;;;;;;5024916;28;20434;-80
2021/10/27 02:07:42;;;;;;;11.77;2.47;;;15.60;99.90;;;;;;5023293;28;20038;-82
2021/10/27 02:10:12;;;;;;;16.73;5.35;;;15.60;99.90;;;;;;5024190;28;20053;-82
2021/10/27 02:12:42;;;;;;;9.57;3.65;;;15.70;99.90;;;;;;5027196;28;20065;-81
2021/10/27 02:15:12;;;;;;;;;;;15.60;99.90;;;;;;5026342;28;20058;-79
2021/10/27 02:17:40;;;;;;;13.32;3.10;;;14.40;99.90;;;;;;5024678;28;19929;-81
2021/10/27 02:20:09;;;;;;;12.43;2.08;;;15.60;99.90;;;;;;5008320;28;20061;-80
2021/10/27 02:22:38;;;;;;;12.88;3.85;;;15.70;99.90;;;;;;5042091;28;20052;-83
2021/10/27 02:25:06;;;;;;;8.80;2.55;;;15.60;99.90;;;;;;5027282;28;20722;-79
2021/10/27 02:27:35;;;;;;;10.18;2.58;;;15.60;99.90;;;;;;5026467;28;20054;-81
2021/10/27 02:30:04;;;;;;;10.10;2.33;;;15.60;99.90;;;;;;5027121;28;20053;-81
2021/10/27 02:32:36;;;;;;;7.50;1.95;;;15.60;99.90;;;;;;5042447;28;20038;-80
2021/10/27 02:35:06;;;;;;;10.43;2.60;;;15.60;99.90;;;;;;5025890;28;20053;-81
2021/10/27 02:37:35;;;;;;;13.05;2.25;;;15.60;99.90;;;;;;5026261;28;20049;-81
2021/10/27 02:40:04;;;;;;;25.13;3.97;;;15.60;99.90;;;;;;5025711;28;20056;-82
2021/10/27 02:42:34;;;;;;;8.30;1.92;;;15.60;99.90;;;;;;5040802;28;20054;-85
2021/10/27 02:45:10;;;;;;;15.23;3.33;;;15.60;99.90;;;;;;5031238;28;20057;-83
2021/10/27 02:47:41;;;;;;;13.00;1.85;;;15.60;99.90;;;;;;5019481;28;20050;-81
2021/10/27 02:50:14;;;;;;;9.63;3.08;;;15.60;99.90;;;;;;5027676;28;20046;-83
2021/10/27 02:52:47;;;;;;;10.50;1.50;;;15.60;99.90;;;;;;5045062;28;20046;-82
2021/10/27 02:55:16;;;;;;;6.60;1.70;;;15.50;99.90;;;;;;5029467;28;20050;-81
2021/10/27 02:57:45;;;;;;;12.40;2.30;;;15.50;99.90;;;;;;5025265;28;20113;-81
2021/10/27 03:00:13;;;;;;;15.35;2.65;;;15.60;99.90;;;;;;5011162;28;20048;-81
2021/10/27 03:02:42;;;;;;;10.73;2.75;;;15.50;99.90;;;;;;5027659;28;20052;-83
2021/10/27 03:05:12;;;;;;;10.88;1.90;;;15.50;99.90;;;;;;5011207;28;20064;-81
2021/10/27 03:07:40;;;;;;;1.88;1.13;;;15.50;99.90;;;;;;5031019;28;20056;-83
2021/10/27 03:10:09;;;;;;;9.73;2.90;;;15.50;99.90;;;;;;5046837;28;20050;-82
2021/10/27 03:12:38;;;;;;;3.17;1.90;;;15.50;99.90;;;;;;5028891;28;20066;-81
2021/10/27 03:15:18;;;;;;;6.78;1.20;;;15.50;99.90;;;;;;5043572;28;20056;-80
2021/10/27 03:17:48;;;;;;;6.27;1.00;;;15.50;99.90;;;;;;5031177;28;20052;-81
2021/10/27 03:20:17;;;;;;;6.05;1.70;;;15.70;99.90;;;;;;5026704;28;20050;-81
2021/10/27 03:22:45;;;;;;;2.78;1.40;;;15.50;99.90;;;;;;5028626;28;20073;-81
2021/10/27 03:25:14;;;;;;;5.60;1.00;;;15.50;99.90;;;;;;5026590;28;20046;-81
2021/10/27 03:27:42;;;;;;;1.58;1.08;;;15.50;99.90;;;;;;5027161;28;20053;-80
2021/10/27 03:30:11;;;;;;;3.40;1.40;;;15.50;99.90;;;;;;5038647;28;20046;-82
2021/10/27 03:32:40;;;;;;;1.70;0.98;;;15.50;99.90;;;;;;5028143;28;20045;-84
2021/10/27 03:35:08;;;;;;;3.35;1.00;;;15.50;99.90;;;;;;5027394;28;20058;-81
2021/10/27 03:37:37;;;;;;;1.58;0.77;;;15.50;99.90;;;;;;5026632;28;20073;-82
2021/10/27 03:40:07;;;;;;;3.53;1.00;;;15.40;99.90;;;;;;5027457;28;20050;-81
2021/10/27 03:42:36;;;;;;;4.03;1.83;;;15.50;99.90;;;;;;5026911;28;20049;-82
2021/10/27 03:45:05;;;;;;;5.32;0.95;;;15.50;99.90;;;;;;5027443;28;20038;-80
2021/10/27 03:47:37;;;;;;;3.85;1.00;;;15.50;99.90;;;;;;5027821;28;20518;-81
2021/10/27 03:50:07;;;;;;;4.63;1.13;;;15.50;99.90;;;;;;5027943;28;20046;-82
2021/10/27 03:52:35;;;;;;;7.40;1.08;;;15.50;99.90;;;;;;5029202;28;20053;-80
2021/10/27 03:55:05;;;;;;;4.05;1.95;;;15.50;99.90;;;;;;5026628;28;20049;-81
2021/10/27 03:57:33;;;;;;;7.82;2.85;;;15.40;99.90;;;;;;5028489;28;20052;-82
2021/10/27 04:00:05;;;;;;;5.80;1.13;;;15.40;99.90;;;;;;5049226;28;20067;-80
2021/10/27 04:02:40;;;;;;;3.58;1.55;;;15.40;99.90;;;;;;5029888;28;20042;-79
2021/10/27 04:05:11;;;;;;;1.73;1.40;;;15.40;99.90;;;;;;5028082;28;20046;-81
2021/10/27 04:07:40;;;;;;;6.35;1.10;;;15.40;99.90;;;;;;5026250;28;20037;-80
2021/10/27 04:10:11;;;;;;;7.05;1.60;;;15.40;99.90;;;;;;4677582;28;10000455;-82
2021/10/27 04:12:40;;;;;;;5.18;1.40;;;15.40;99.90;;;;;;5043639;28;20049;-83
2021/10/27 04:15:10;;;;;;;7.82;2.00;;;15.30;99.90;;;;;;5028489;28;20054;-82
2021/10/27 04:17:40;;;;;;;7.32;1.10;;;15.30;99.90;;;;;;5027012;28;20141;-79
2021/10/27 04:20:09;;;;;;;10.50;1.83;;;15.30;99.90;;;;;;4994559;28;20046;-81
2021/10/27 04:22:40;;;;;;;6.65;1.27;;;15.30;99.90;;;;;;5027587;28;20068;-81
2021/10/27 04:25:10;;;;;;;13.48;2.88;;;15.20;99.90;;;;;;5011237;28;20062;-81
2021/10/27 04:27:39;;;;;;;6.93;1.83;;;15.20;99.90;;;;;;5039018;28;20070;-80
2021/10/27 04:30:09;;;;;;;10.13;1.95;;;15.10;99.90;;;;;;5023681;28;20142;-79
2021/10/27 04:32:38;;;;;;;7.28;2.00;;;15.10;99.90;;;;;;5007569;28;20050;-79
2021/10/27 04:35:08;;;;;;;13.05;1.42;;;15.10;99.90;;;;;;5024362;28;20467;-79
2021/10/27 04:37:39;;;;;;;7.75;1.65;;;14.30;99.90;;;;;;5024148;28;20052;-79
2021/10/27 04:40:10;;;;;;;9.75;1.40;;;15.10;99.90;;;;;;5010689;28;20064;-79
2021/10/27 04:42:40;;;;;;;3.97;1.27;;;15.10;99.90;;;;;;4991484;28;20060;-79
2021/10/27 04:45:10;;;;;;;12.13;1.52;;;15.10;99.90;;;;;;5024845;28;20049;-79
2021/10/27 04:47:39;;;;;;;10.10;1.73;;;15.10;99.90;;;;;;5008105;28;20328;-80
2021/10/27 04:50:09;;;;;;;7.57;1.65;;;15.10;99.90;;;;;;5022714;28;20053;-81
2021/10/27 04:52:38;;;;;;;11.23;2.50;;;15.10;99.90;;;;;;5014902;28;20029;-80
2021/10/27 04:55:08;;;;;;;3.08;1.58;;;15.10;99.90;;;;;;5025017;28;20054;-80
2021/10/27 04:57:37;;;;;;;6.75;1.70;;;15.10;99.90;;;;;;5025611;28;20046;-81
2021/10/27 05:00:06;;;;;;;10.18;1.75;;;15.10;99.90;;;;;;5025871;28;20060;-81
2021/10/27 05:02:36;;;;;;;;;;;15.10;99.90;;;;;;5025628;28;20062;-80
2021/10/27 05:05:08;;;;;;;6.63;2.07;;;15.10;99.90;;;;;;5027357;28;19935;-81
2021/10/27 05:07:36;;;;;;;6.57;1.50;;;15.10;99.90;;;;;;5032532;28;20275;-81
2021/10/27 05:10:05;;;;;;;5.40;1.50;;;15.10;99.90;;;;;;5025512;28;20062;-78
2021/10/27 05:12:33;;;;;;;6.32;1.65;;;15.10;99.90;;;;;;5025869;28;20034;-82
2021/10/27 05:15:03;;;;;;;10.43;2.05;;;15.10;99.90;;;;;;5024106;28;20804;-83
2021/10/27 05:17:36;;;;;;;6.18;1.35;;;15.20;99.90;;;;;;5011855;28;20045;-80
2021/10/27 05:20:05;;;;;;;6.75;2.72;;;15.20;99.90;;;;;;5010313;28;20050;-79
2021/10/27 05:22:34;;;;;;;8.55;1.73;;;15.20;99.90;;;;;;5025749;28;20048;-80
2021/10/27 05:25:02;;;;;;;10.77;1.60;;;15.20;99.90;;;;;;5037550;28;20063;-87
2021/10/27 05:27:31;;;;;;;9.45;1.67;;;15.20;99.90;;;;;;5027475;28;20060;-81
2021/10/27 05:29:59;;;;;;;4.85;1.65;;;15.20;99.90;;;;;;5024829;28;20046;-80
2021/10/27 05:32:27;;;;;;;10.30;1.60;;;15.20;99.90;;;;;;5038969;28;20052;-81
2021/10/27 05:34:56;;;;;;;8.38;2.60;;;15.20;99.90;;;;;;5022092;28;20049;-83
2021/10/27 05:37:24;;;;;;;6.95;1.55;;;15.30;99.90;;;;;;5006919;28;20053;-81
2021/10/27 05:39:53;;;;;;;6.65;1.67;;;15.30;99.90;;;;;;5022276;28;20050;-81
2021/10/27 05:42:26;;;;;;;8.15;2.10;;;15.30;99.90;;;;;;5006398;28;20053;-80
2021/10/27 05:44:57;;;;;;;4.90;1.55;;;15.30;99.90;;;;;;5025211;28;20217;-81
2021/10/27 05:47:26;;;;;;;9.82;2.10;;;15.20;99.90;;;;;;5029237;28;20054;-83
2021/10/27 05:50:20;;;;;;;11.07;2.05;;;15.20;99.90;;;;;;5029589;28;20056;-81
2021/10/27 05:55:36;;;;;;;7.97;1.45;;;15.30;99.90;;;;;;5013013;28;20056;-82
2021/10/27 05:58:06;;;;;;;5.75;1.70;;;15.30;99.90;;;;;;5030032;28;20262;-82
2021/10/27 06:00:37;;;;;;;5.57;1.60;;;15.30;99.90;;;;;;5024841;28;20054;-82
2021/10/27 06:03:05;;;;;;;6.60;1.45;;;15.30;99.90;;;;;;5008236;28;20060;-82
2021/10/27 06:05:35;;;;;;;8.50;1.77;;;15.30;99.90;;;;;;5025623;28;20054;-80
2021/10/27 06:08:05;;;;;;;9.82;2.30;;;15.30;99.90;;;;;;5013741;28;20057;-81
2021/10/27 06:10:34;;;;;;;13.70;2.20;;;15.30;99.90;;;;;;5026713;28;20354;-82
2021/10/27 06:13:11;;;;;;;3.55;1.80;;;15.30;99.90;;;;;;5023183;28;20038;-81
2021/10/27 06:15:41;;;;;;;12.60;1.60;;;15.30;99.90;;;;;;5025075;28;20053;-81
2021/10/27 06:18:10;;;;;;;9.20;1.83;;;15.30;99.90;;;;;;5026032;28;20046;-85
2021/10/27 06:20:39;;;;;;;7.85;1.50;;;15.30;99.90;;;;;;5029836;28;20335;-84
2021/10/27 06:23:12;;;;;;;11.32;1.83;;;15.30;99.90;;;;;;5012615;28;20049;-83
2021/10/27 06:25:41;;;;;;;6.13;1.45;;;15.30;99.90;;;;;;5009826;28;20053;-79
2021/10/27 06:28:16;;;;;;;10.75;1.83;;;15.30;99.90;;;;;;5027384;28;20056;-78
2021/10/27 06:30:56;;;;;;;8.55;1.80;;;15.30;99.90;;;;;;5013186;28;20049;-82
2021/10/27 06:33:51;;;;;;;18.25;5.38;;;15.30;99.90;;;;;;5023871;28;20045;-81
2021/10/27 06:47:12;;;;;;;8.25;1.73;;;15.00;99.90;;;;;;4984693;28;20054;-86
2021/10/27 06:50:27;;;;;;;6.10;2.10;;;15.20;99.90;;;;;;4987350;28;20058;-83
2021/10/27 06:53:39;;;;;;;6.68;2.00;;;15.10;99.90;;;;;;4995484;28;20412;-84
2021/10/27 06:56:45;;;;;;;;;;;14.50;99.90;;;;;;4995373;28;20053;-84
2021/10/27 06:59:43;;;;;;;5.43;1.60;;;15.10;99.90;;;;;;5010150;28;19921;-84
2021/10/27 07:18:36;;;;;;;10.18;2.35;;;15.00;99.90;;;;;;4938421;28;20051;-85
2021/10/27 07:22:46;;;;;;;9.05;1.92;;;15.00;99.90;;;;;;4957211;29;20051;-86
2021/10/27 07:30:46;;;;;;;;;;;;;;;;;;;;;
2021/10/27 07:35:13;;;;;;;;;;;;;;;;;;;;;
2021/10/27 07:42:40;;;;;;;7.13;1.58;;;15.10;99.90;;;;;;4964507;28;20043;-85
2021/10/27 07:56:00;;;;;;;9.18;2.30;;;14.30;99.90;;;;;;4732217;30;20039;-88
2021/10/27 08:03:04;;;;;;;9.85;2.72;;;16.00;99.90;;;;;;5136213;27;20663;-89
2021/10/27 08:05:41;;;;;;;10.07;2.25;;;15.30;99.90;;;;;;5113241;27;20043;-89
2021/10/27 08:08:15;;;;;;;14.60;2.03;;;15.30;99.90;;;;;;5124567;28;20043;-90
2021/10/27 08:10:47;;;;;;;14.07;2.28;;;15.30;99.90;;;;;;5127318;28;20051;-89
2021/10/27 08:13:19;;;;;;;6.00;2.00;;;15.40;99.90;;;;;;5143787;27;20044;-88
2021/10/27 08:15:52;;;;;;;11.52;1.95;;;15.40;99.90;;;;;;5136417;27;20058;-90
2021/10/27 08:18:23;;;;;;;5.95;2.60;;;15.50;99.90;;;;;;5140087;27;20027;-89
2021/10/27 08:21:06;;;;;;;7.75;1.65;;;15.50;99.90;;;;;;5120774;27;20820;-90
2021/10/27 08:23:39;;;;;;;7.63;1.98;;;15.50;99.90;;;;;;5109516;27;20391;-90
2021/10/27 08:26:30;;;;;;;11.35;3.20;;;15.30;99.90;;;;;;5145953;27;20033;-91
2021/10/27 08:29:14;;;;;;;8.63;1.65;;;15.50;99.90;;;;;;5127837;28;20054;-90
2021/10/27 08:31:47;;;;;;;12.60;3.40;;;15.50;99.90;;;;;;5148572;27;20048;-89
2021/10/27 08:34:36;;;;;;;7.75;1.70;;;15.60;99.90;;;;;;5146071;28;20043;-88
2021/10/27 08:37:04;;;;;;;6.90;1.73;;;15.60;99.90;;;;;;5145260;28;20043;-87
2021/10/27 08:39:33;;;;;;;8.95;2.67;;;15.60;99.90;;;;;;5140582;28;20043;-89
2021/10/27 08:42:05;;;;;;;12.98;1.90;;;15.60;99.90;;;;;;5106977;28;20058;-90
2021/10/27 08:44:38;;;;;;;7.28;1.52;;;15.60;99.90;;;;;;5153386;27;20048;-89
2021/10/27 08:47:07;;;;;;;4.00;1.83;;;15.60;99.90;;;;;;5143824;27;20054;-92
2021/10/27 08:49:55;;;;;;;7.18;2.13;;;15.70;99.90;;;;;;5103055;28;20054;-88
2021/10/27 08:52:27;;;;;;;;;;;15.10;99.90;;;;;;5133495;28;20047;-87
2021/10/27 08:54:57;;;;;;;11.27;1.95;;;15.80;99.90;;;;;;5127223;27;19931;-88
2021/10/27 08:57:25;;;;;;;9.20;1.92;;;15.10;99.90;;;;;;5129464;28;20043;-91
2021/10/27 09:00:29;;;;;;;7.90;2.05;;;15.90;99.90;;;;;;5131462;28;20058;-89
2021/10/27 09:06:26;;;;;;;4.97;1.52;;;16.00;99.90;;;;;;5108252;28;20647;-88
2021/10/27 10:04:30;;;;;;;11.82;2.17;;;16.50;99.90;;;;;;5117358;28;20043;-87
2021/10/27 10:07:06;;;;;;;5.28;1.73;;;16.50;99.90;;;;;;5097651;28;20056;-90
2021/10/27 10:09:40;;;;;;;10.48;1.83;;;16.50;99.90;;;;;;5098192;28;20035;-89
2021/10/27 10:13:03;;;;;;;4.55;1.40;;;16.50;99.90;;;;;;4407860;27;10000505;-90
2021/10/27 10:15:58;;;;;;;7.38;1.77;;;16.50;99.90;;;;;;5118676;28;20043;-91
2021/10/27 10:18:44;;;;;;;13.52;1.50;;;16.50;99.90;;;;;;5108343;28;20121;-90
2021/10/27 10:21:28;;;;;;;6.30;1.33;;;16.60;99.90;;;;;;5112387;27;20402;-91
2021/10/27 10:24:26;;;;;;;4.75;1.45;;;16.60;99.90;;;;;;5107430;27;20383;-89
2021/10/27 10:27:10;;;;;;;6.82;2.72;;;16.60;99.90;;;;;;5076034;28;20666;-91
2021/10/27 10:29:58;;;;;;;6.65;1.42;;;16.60;99.90;;;;;;5107615;28;20485;-89
2021/10/27 10:32:36;;;;;;;9.13;1.60;;;16.70;99.90;;;;;;5110869;28;20070;-88
2021/10/27 10:35:12;;;;;;;5.32;1.92;;;16.10;99.90;;;;;;5116345;28;20054;-90
2021/10/27 10:38:07;;;;;;;3.53;0.90;;;16.80;99.90;;;;;;5107404;28;20063;-89
2021/10/27 10:41:12;;;;;;;7.72;1.92;;;16.80;99.90;;;;;;5108981;28;20047;-88
2021/10/27 10:58:07;;;;;;;9.37;1.20;;;17.10;99.90;;;;;;5126012;28;20058;-89
2021/10/27 11:00:57;;;;;;;11.98;2.05;;;17.10;99.90;;;;;;5100072;28;20502;-88
2021/10/27 11:03:44;;;;;;;7.10;2.28;;;17.10;99.90;;;;;;5101855;28;20052;-90
2021/10/27 11:24:05;;;;;;;12.60;2.13;;;17.40;99.90;;;;;;5094359;28;20054;-90
2021/10/27 11:38:20;;;;;;;7.13;2.58;;;18.00;99.90;;;;;;5109340;28;20044;-90
2021/10/27 11:41:22;;;;;;;7.88;2.70;;;18.00;99.90;;;;;;5094217;28;20055;-90
2021/10/27 11:46:45;;;;;;;3.60;1.98;;;17.90;99.90;;;;;;5096402;28;20047;-89
2021/10/27 11:49:25;;;;;;;13.50;1.80;;;17.70;99.90;;;;;;5114390;28;20047;-90
2021/10/27 11:51:58;;;;;;;13.55;2.13;;;17.80;99.90;;;;;;5113885;28;20046;-92
2021/10/27 11:54:27;;;;;;;10.00;1.95;;;17.70;99.90;;;;;;5119609;28;20036;-90
2021/10/27 11:56:56;;;;;;;12.18;2.72;;;17.40;99.90;;;;;;5103130;28;20047;-90
2021/10/27 11:59:37;;;;;;;11.35;2.67;;;17.70;99.90;;;;;;5101481;28;20047;-90
2021/10/27 12:02:09;;;;;;;10.13;2.40;;;17.60;99.90;;;;;;5100520;28;20058;-88
2021/10/27 12:04:44;;;;;;;5.78;1.98;;;17.50;99.90;;;;;;5120350;28;20051;-89
2021/10/27 12:07:19;;;;;;;6.97;2.42;;;17.50;99.90;;;;;;5082855;28;20055;-89
2021/10/27 12:10:16;;;;;;;11.38;2.53;;;17.50;99.90;;;;;;5116606;28;20062;-89
2021/10/27 12:15:47;;;;;;;11.30;2.45;;;17.70;99.90;;;;;;5095990;28;20424;-89
2021/10/27 12:18:17;;;;;;;9.02;1.85;;;17.80;99.90;;;;;;5106086;28;20522;-89
2021/10/27 12:20:57;;;;;;;5.93;2.20;;;17.90;99.90;;;;;;5114304;28;20044;-89
2021/10/27 12:23:29;;;;;;;10.82;2.25;;;17.90;99.90;;;;;;5104006;28;20063;-90
2021/10/27 12:26:07;;;;;;;11.75;1.73;;;16.80;99.90;;;;;;5106715;28;20044;-90
2021/10/27 12:28:37;;;;;;;8.40;1.95;;;18.00;99.90;;;;;;5119627;28;20066;-90
2021/10/27 12:31:26;;;;;;;12.40;1.88;;;18.00;99.90;;;;;;5101800;28;20054;-93
2021/10/27 12:34:39;;;;;;;10.75;1.77;;;18.00;99.90;;;;;;5120642;28;20043;-92
2021/10/27 12:37:37;;;;;;;6.95;1.50;;;18.00;99.90;;;;;;5086648;28;20055;-90
2021/10/27 12:40:11;;;;;;;10.32;2.35;;;18.00;99.90;;;;;;5119206;28;20046;-90
2021/10/27 12:42:40;;;;;;;7.55;2.38;;;17.90;99.90;;;;;;5119286;28;20048;-90
2021/10/27 12:45:08;;;;;;;9.38;3.05;;;18.00;99.90;;;;;;5088605;28;20043;-93
2021/10/27 12:48:07;;;;;;;16.50;2.30;;;18.10;99.90;;;;;;5108608;28;20059;-91
2021/10/27 12:51:02;;;;;;;9.40;1.40;;;18.40;99.90;;;;;;5127965;28;20047;-91
2021/10/27 12:53:35;;;;;;;9.43;1.92;;;18.00;99.90;;;;;;5086429;28;20052;-91
2021/10/27 12:56:12;;;;;;;17.33;3.88;;;17.90;99.90;;;;;;5113900;28;20044;-88
2021/10/27 12:58:52;;;;;;;9.00;2.70;;;17.90;99.90;;;;;;5122336;28;20048;-85
2021/10/27 13:01:31;;;;;;;11.70;2.25;;;17.90;99.90;;;;;;5126021;28;20422;-87
2021/10/27 13:12:39;;;;;;;8.68;2.95;;;18.20;99.90;;;;;;5129489;28;20044;-87
2021/10/27 13:16:41;;;;;;;14.68;2.08;;;18.10;99.90;;;;;;5128567;27;20059;-86
2021/10/27 13:18:54;;;;;;;7.22;1.80;;;18.10;99.90;;;;;;5118314;28;20047;-85
2021/10/27 13:29:51;;;;;;;8.50;1.88;;;17.90;99.90;;;;;;5117657;28;20055;-88
2021/10/27 13:32:26;;;;;;;7.55;2.03;;;17.80;99.90;;;;;;5120282;28;20039;-86
2021/10/27 13:34:53;;;;;;;13.10;2.20;;;17.80;99.90;;;;;;5099611;28;20059;-87
2021/10/27 13:37:24;;;;;;;11.73;2.13;;;17.80;99.90;;;;;;5118108;28;20036;-87
2021/10/27 13:39:55;;;;;;;12.60;2.17;;;17.80;99.90;;;;;;5100411;28;20063;-88
2021/10/27 13:42:39;;;;;;;11.43;1.90;;;17.70;99.90;;;;;;5118089;28;20047;-88
2021/10/27 14:10:47;;;;;;;5.35;2.08;;;17.90;99.90;;;;;;5113269;27;20046;-89
2021/10/27 15:20:22;;;;;;;5.72;1.58;;;18.30;99.90;;;;;;5109406;28;20553;-86
2021/10/27 15:25:52;;;;;;;9.25;1.98;;;17.80;99.90;;;;;;5108648;28;20070;-86
2021/10/27 15:28:42;;;;;;;9.82;2.55;;;17.70;99.90;;;;;;5098455;28;20418;-86
2021/10/27 15:36:30;;;;;;;9.00;1.80;;;17.20;99.90;;;;;;5111780;28;20055;-88
2021/10/27 15:53:08;;;;;;;9.30;2.05;;;16.70;99.90;;;;;;5092854;28;20067;-87
2021/10/27 15:55:37;;;;;;;13.48;2.65;;;16.50;99.90;;;;;;5106536;28;20052;-85
2021/10/27 15:58:09;;;;;;;12.20;2.15;;;16.50;99.90;;;;;;5084735;28;20501;-86
2021/10/27 16:00:39;;;;;;;15.40;2.08;;;16.40;99.90;;;;;;5086501;28;20099;-87
2021/10/27 16:03:11;;;;;;;7.07;1.52;;;16.30;99.90;;;;;;5103555;28;20067;-88
2021/10/27 16:05:44;;;;;;;9.10;1.38;;;16.30;99.90;;;;;;5101811;28;20341;-87
2021/10/27 16:08:15;;;;;;;7.68;2.08;;;16.30;99.90;;;;;;5103122;28;20046;-87
2021/10/27 16:10:44;;;;;;;;;;;16.30;99.90;;;;;;5099677;28;20054;-86
2021/10/27 16:13:12;;;;;;;11.60;2.50;;;16.30;99.90;;;;;;5085921;28;19923;-87
2021/10/27 16:15:42;;;;;;;8.32;2.67;;;16.30;99.90;;;;;;5105606;28;20044;-86
2021/10/27 16:18:13;;;;;;;13.70;2.25;;;16.30;99.90;;;;;;5098184;28;20043;-85
2021/10/27 16:20:42;;;;;;;16.38;3.63;;;16.30;99.90;;;;;;5103354;28;20059;-85
2021/10/27 16:23:14;;;;;;;8.77;1.90;;;16.20;99.90;;;;;;5103531;28;20052;-86
2021/10/27 16:25:57;;;;;;;11.52;2.45;;;16.20;99.90;;;;;;5097018;28;20063;-87
2021/10/27 16:28:27;;;;;;;10.85;2.22;;;16.20;99.90;;;;;;5109320;28;20046;-85
2021/10/27 16:31:04;;;;;;;10.82;2.40;;;16.20;99.90;;;;;;5093018;28;20051;-86
2021/10/27 16:33:34;;;;;;;14.45;2.50;;;16.20;99.90;;;;;;5107781;28;20577;-86
2021/10/27 16:36:03;;;;;;;8.38;2.42;;;16.10;99.90;;;;;;5099345;28;20051;-86
2021/10/27 16:38:31;;;;;;;9.05;2.97;;;16.10;99.90;;;;;;5114194;28;20044;-86
2021/10/27 16:40:59;;;;;;;8.48;2.30;;;16.10;99.90;;;;;;5120223;28;20032;-86
2021/10/27 16:43:28;;;;;;;9.32;2.85;;;16.10;99.90;;;;;;5116624;28;20702;-85
2021/10/27 16:45:56;;;;;;;8.93;2.30;;;16.00;99.90;;;;;;5115472;28;20054;-85
2021/10/27 16:48:25;;;;;;;9.50;2.40;;;16.00;99.90;;;;;;5092322;28;20051;-85
2021/10/27 16:50:56;;;;;;;11.57;2.78;;;16.00;99.90;;;;;;5099758;28;20058;-86
2021/10/27 16:53:25;;;;;;;5.78;2.22;;;15.90;99.90;;;;;;5107165;28;20069;-83
2021/10/27 16:55:53;;;;;;;14.60;2.70;;;15.90;99.90;;;;;;5117056;28;20040;-85
2021/10/27 16:58:21;;;;;;;10.40;2.38;;;15.90;99.90;;;;;;5115103;28;20035;-83
2021/10/27 17:00:52;;;;;;;6.38;2.40;;;15.80;99.90;;;;;;5115504;28;20046;-87
2021/10/27 17:03:21;;;;;;;10.40;2.80;;;15.70;99.90;;;;;;5102186;28;20039;-87
2021/10/27 17:05:51;;;;;;;9.63;3.08;;;15.60;99.90;;;;;;5103643;28;20039;-86
2021/10/27 17:08:21;;;;;;;16.92;3.22;;;15.60;99.90;;;;;;5104972;28;20048;-85
2021/10/27 17:10:51;;;;;;;11.63;2.58;;;15.50;99.90;;;;;;5108785;27;20048;-87
2021/10/27 17:13:21;;;;;;;13.65;3.00;;;15.40;99.90;;;;;;5107947;27;20048;-87
2021/10/27 17:15:49;;;;;;;7.15;2.30;;;15.30;99.90;;;;;;5106829;28;20043;-85
2021/10/27 17:18:17;;;;;;;10.63;2.65;;;15.20;99.90;;;;;;5105938;28;20502;-85
2021/10/27 17:20:46;;;;;;;10.45;2.50;;;15.20;99.90;;;;;;5105911;28;20040;-86
2021/10/27 17:23:28;;;;;;;15.45;2.60;;;15.20;99.90;;;;;;5123513;27;20062;-85
2021/10/27 17:25:57;;;;;;;18.15;3.03;;;15.10;99.90;;;;;;5110576;28;20058;-86
2021/10/27 17:28:26;;;;;;;8.98;2.88;;;15.00;99.90;;;;;;5108838;28;20040;-85
2021/10/27 17:30:54;;;;;;;5.10;2.03;;;15.00;99.90;;;;;;5108137;28;20052;-87
2021/10/27 17:33:22;;;;;;;10.93;2.80;;;14.90;99.90;;;;;;5094098;28;20055;-88
2021/10/27 17:35:51;;;;;;;12.50;3.30;;;14.90;99.90;;;;;;5110268;28;20040;-85
2021/10/27 17:38:20;;;;;;;8.75;2.80;;;14.80;99.90;;;;;;5114030;28;20047;-86
2021/10/27 17:40:49;;;;;;;10.38;2.63;;;14.80;99.90;;;;;;5111789;28;20044;-88
2021/10/27 17:43:19;;;;;;;13.52;3.65;;;14.80;99.90;;;;;;5120414;28;20058;-85
2021/10/27 17:45:47;;;;;;;10.27;2.83;;;14.70;99.90;;;;;;5127210;28;20044;-86
2021/10/27 17:48:20;;;;;;;11.40;2.17;;;14.60;99.90;;;;;;5125478;28;20149;-87
2021/10/27 17:51:02;;;;;;;5.53;1.95;;;14.60;99.90;;;;;;5107119;28;20047;-88
2021/10/27 17:58:48;;;;;;;16.10;2.35;;;14.50;99.90;;;;;;5104799;28;20056;-86
2021/10/27 18:01:21;;;;;;;9.15;2.70;;;14.50;99.90;;;;;;5103434;28;20059;-84
2021/10/27 18:03:49;;;;;;;9.20;2.97;;;14.50;99.90;;;;;;5106714;28;20043;-84
2021/10/27 18:06:23;;;;;;;9.38;2.46;;;14.40;99.90;;;;;;4968843;27;10000951;-86
2021/10/27 18:08:51;;;;;;;15.23;2.80;;;14.40;99.90;;;;;;5104674;28;20262;-88
2021/10/27 18:11:23;;;;;;;9.50;2.47;;;14.40;99.90;;;;;;5104035;28;20051;-87
2021/10/27 18:14:06;;;;;;;10.00;2.22;;;14.30;99.90;;;;;;5103051;28;20161;-86
2021/10/27 18:19:24;;;;;;;8.20;2.00;;;14.30;99.90;;;;;;5085086;28;20051;-86
2021/10/27 18:43:41;;;;;;;;;;;14.10;99.90;;;;;;5100729;28;20304;-85
2021/10/27 18:46:08;;;;;;;9.45;2.45;;;14.00;99.90;;;;;;5102130;28;20748;-85
2021/10/27 18:48:37;;;;;;;4.75;2.15;;;14.00;99.90;;;;;;5102229;28;20517;-86